createdAt,value
2019-05-12T00:00:58.535Z,3.70
2019-05-12T00:05:57.383Z,5.57
2019-05-12T00:10:54.602Z,3.17
2019-05-12T00:15:51.708Z,5.00
2019-05-12T00:20:48.829Z,4.17
2019-05-12T00:25:48.006Z,7.43
2019-05-12T00:30:48.725Z,4.07
2019-05-12T00:35:48.123Z,4.00
2019-05-12T00:40:44.781Z,3.43
2019-05-12T00:45:41.810Z,3.73
2019-05-12T00:50:39.243Z,3.93
2019-05-12T00:55:38.096Z,4.73
2019-05-12T01:00:35.186Z,4.60
2019-05-12T01:05:32.132Z,3.87
2019-05-12T01:10:29.712Z,4.03
2019-05-12T01:15:28.706Z,2.97
2019-05-12T01:20:28.034Z,4.23
2019-05-12T01:25:24.517Z,3.63
2019-05-12T01:30:21.939Z,3.50
2019-05-12T01:35:18.945Z,3.00
2019-05-12T01:40:16.039Z,3.33
2019-05-12T01:45:13.086Z,3.63
2019-05-12T01:50:10.364Z,3.53
2019-05-12T01:55:08.182Z,4.03
2019-05-12T02:00:10.886Z,5.23
2019-05-12T02:05:08.909Z,3.43
2019-05-12T02:10:09.337Z,3.90
2019-05-12T02:15:08.202Z,4.00
2019-05-12T02:20:10.641Z,3.63
2019-05-12T02:25:08.191Z,3.77
2019-05-12T02:30:09.783Z,3.60
2019-05-12T02:35:06.239Z,3.97
2019-05-12T02:40:09.943Z,3.60
2019-05-12T02:45:08.905Z,3.37
2019-05-12T02:50:07.475Z,3.70
2019-05-12T02:55:06.376Z,4.30
2019-05-12T03:00:06.472Z,3.47
2019-05-12T03:05:07.394Z,3.70
2019-05-12T03:10:07.046Z,3.40
2019-05-12T03:15:06.205Z,3.57
2019-05-12T03:20:05.542Z,3.63
2019-05-12T03:25:14.723Z,5.77
2019-05-12T03:30:10.883Z,3.57
2019-05-12T03:35:08.727Z,3.80
2019-05-12T03:40:06.012Z,4.27
2019-05-12T03:45:04.809Z,2.80
2019-05-12T03:50:04.546Z,4.10
2019-05-12T03:55:01.301Z,3.53
2019-05-12T03:59:58.442Z,3.83
2019-05-12T04:04:55.701Z,2.90
2019-05-12T04:09:54.640Z,3.67
2019-05-12T04:14:54.842Z,3.33
2019-05-12T04:19:54.978Z,3.20
2019-05-12T04:24:49.999Z,5.47
2019-05-12T04:29:48.585Z,2.93
2019-05-12T04:34:47.403Z,2.70
2019-05-12T04:39:44.787Z,2.77
2019-05-12T04:44:44.834Z,2.93
2019-05-12T04:49:45.234Z,3.93
2019-05-12T04:54:44.506Z,3.13
2019-05-12T04:59:44.862Z,3.40
2019-05-12T05:04:43.946Z,2.67
2019-05-12T05:09:44.279Z,3.30
2019-05-12T05:14:44.485Z,3.00
2019-05-12T05:19:41.019Z,2.87
2019-05-12T05:24:38.024Z,3.50
2019-05-12T05:29:37.338Z,2.20
2019-05-12T05:34:34.501Z,3.10
2019-05-12T05:39:35.702Z,5.23
2019-05-12T05:44:37.997Z,2.70
2019-05-12T05:49:34.382Z,2.53
2019-05-12T05:54:35.721Z,1.93
2019-05-12T05:59:37.058Z,1.70
2019-05-12T06:04:34.142Z,2.30
2019-05-12T06:09:33.763Z,2.40
2019-05-12T06:14:30.492Z,2.93
2019-05-12T06:19:30.078Z,3.63
2019-05-12T06:24:27.241Z,2.70
2019-05-12T06:29:25.111Z,1.40
2019-05-12T06:34:23.820Z,1.07
2019-05-12T06:39:20.973Z,1.60
2019-05-12T06:44:19.547Z,5.23
2019-05-12T06:49:17.673Z,2.67
2019-05-12T06:54:15.321Z,4.33
2019-05-12T06:59:14.649Z,1.90
2019-05-12T07:04:14.131Z,2.73
2019-05-12T07:09:18.590Z,5.70
2019-05-12T07:14:18.881Z,1.50
2019-05-12T07:19:17.458Z,1.10
2019-05-12T07:24:14.376Z,2.93
2019-05-12T07:29:13.415Z,6.33
2019-05-12T07:34:13.647Z,2.63
2019-05-12T07:39:13.671Z,1.47
2019-05-12T07:44:14.182Z,1.83
2019-05-12T07:49:11.401Z,2.87
2019-05-12T07:54:09.032Z,3.87
2019-05-12T07:59:08.001Z,4.53
2019-05-12T08:04:05.517Z,3.10
2019-05-12T08:09:05.517Z,2.37
2019-05-12T08:14:03.618Z,3.00
2019-05-12T08:19:00.817Z,1.13
2019-05-12T08:23:59.467Z,4.27
2019-05-12T08:28:56.829Z,0.97
2019-05-12T08:33:55.659Z,1.13
2019-05-12T08:38:53.646Z,3.50
2019-05-12T08:43:57.411Z,1.10
2019-05-12T08:48:51.550Z,1.20
2019-05-12T08:53:56.138Z,3.97
2019-05-12T08:58:54.303Z,1.57
2019-05-12T09:03:53.326Z,1.13
2019-05-12T09:08:54.232Z,0.73
2019-05-12T09:13:52.787Z,0.50
2019-05-12T09:18:52.372Z,1.30
2019-05-12T09:23:53.230Z,2.90
2019-05-12T09:28:50.382Z,1.47
2019-05-12T09:33:50.949Z,1.83
2019-05-12T09:38:46.223Z,1.00
2019-05-12T09:43:48.369Z,1.43
2019-05-12T09:48:52.094Z,2.43
2019-05-12T09:53:50.808Z,0.93
2019-05-12T09:58:58.300Z,1.60
2019-05-12T10:03:44.889Z,1.20
2019-05-12T10:08:43.761Z,1.23
2019-05-12T10:13:40.828Z,1.00
2019-05-12T10:18:45.411Z,10.67
2019-05-12T10:23:37.312Z,1.10
2019-05-12T10:28:34.431Z,1.73
2019-05-12T10:33:37.481Z,1.43
2019-05-12T10:38:34.675Z,2.30
2019-05-12T10:43:35.428Z,1.67
2019-05-12T10:48:33.841Z,5.90
2019-05-12T10:53:31.309Z,5.37
2019-05-12T10:58:28.493Z,2.07
2019-05-12T11:03:25.615Z,1.63
2019-05-12T11:08:24.734Z,1.67
2019-05-12T11:13:23.571Z,1.57
2019-05-12T11:18:28.815Z,2.30
2019-05-12T11:23:21.597Z,1.70
2019-05-12T11:28:19.377Z,1.10
2019-05-12T11:33:17.604Z,1.87
2019-05-12T11:38:14.728Z,1.30
2019-05-12T11:43:14.104Z,2.07
2019-05-12T11:48:14.402Z,4.53
2019-05-12T11:53:13.611Z,5.50
2019-05-12T11:58:11.678Z,2.60
2019-05-12T12:03:12.980Z,10.83
2019-05-12T12:08:08.918Z,2.50
2019-05-12T12:13:10.399Z,2.10
2019-05-12T12:18:13.298Z,4.13
2019-05-12T12:23:11.133Z,4.13
2019-05-12T12:28:07.384Z,4.67
2019-05-12T12:33:04.539Z,9.97
2019-05-12T12:38:03.595Z,7.57
2019-05-12T12:43:03.484Z,5.00
2019-05-12T12:48:00.042Z,6.90
2019-05-12T12:52:58.494Z,4.17
2019-05-12T12:57:58.507Z,13.60
2019-05-12T13:02:58.501Z,10.20
2019-05-12T13:07:57.309Z,4.60
2019-05-12T13:12:59.498Z,2.47
2019-05-12T13:17:56.484Z,2.17
2019-05-12T13:22:53.870Z,1.00
2019-05-12T13:27:53.445Z,0.70
2019-05-12T13:32:53.591Z,0.73
2019-05-12T13:37:56.520Z,1.30
2019-05-12T13:42:54.492Z,0.83
2019-05-12T13:47:53.570Z,1.13
2019-05-12T13:52:50.690Z,1.60
2019-05-12T13:57:56.086Z,1.10
2019-05-12T14:02:49.044Z,1.90
2019-05-12T14:07:50.103Z,0.80
2019-05-12T14:12:45.266Z,1.27
2019-05-12T14:17:43.574Z,1.53
2019-05-12T14:22:44.863Z,2.20
2019-05-12T14:27:44.207Z,2.07
2019-05-12T14:32:49.244Z,1.70
2019-05-12T14:37:45.981Z,1.57
2019-05-12T14:42:44.893Z,1.03
2019-05-12T14:47:44.878Z,2.07
2019-05-12T14:52:44.160Z,1.77
2019-05-12T14:57:41.400Z,1.30
2019-05-12T15:02:40.350Z,0.80
2019-05-12T15:07:42.657Z,1.20
2019-05-12T15:12:38.381Z,1.20
2019-05-12T15:17:35.526Z,2.70
2019-05-12T15:22:43.061Z,1.17
2019-05-12T15:27:45.250Z,1.90
2019-05-12T15:32:38.733Z,3.03
2019-05-12T15:37:38.992Z,2.07
2019-05-12T15:42:34.698Z,2.17
2019-05-12T15:47:35.257Z,1.93
2019-05-12T15:52:37.795Z,2.47
2019-05-12T15:57:33.560Z,1.57
2019-05-12T16:02:36.054Z,2.47
2019-05-12T16:07:35.601Z,2.40
2019-05-12T16:12:34.265Z,3.90
2019-05-12T16:17:31.152Z,1.20
2019-05-12T16:22:30.551Z,1.57
2019-05-12T16:27:33.186Z,1.43
2019-05-12T16:32:39.616Z,1.60
2019-05-12T16:37:31.320Z,2.83
2019-05-12T16:42:26.033Z,2.00
2019-05-12T16:47:25.142Z,3.30
2019-05-12T16:52:24.234Z,5.00
2019-05-12T16:57:24.135Z,1.63
2019-05-12T17:02:23.395Z,3.07
2019-05-12T17:07:20.963Z,1.60
2019-05-12T17:12:18.242Z,4.00
2019-05-12T17:17:20.972Z,1.93
2019-05-12T17:22:17.726Z,1.90
2019-05-12T17:27:20.394Z,1.57
2019-05-12T17:32:13.863Z,2.03
2019-05-12T17:37:15.152Z,4.33
2019-05-12T17:42:21.254Z,2.97
2019-05-12T17:47:15.318Z,2.00
2019-05-12T17:52:12.756Z,4.17
2019-05-12T17:57:09.545Z,20.23
2019-05-12T18:02:15.057Z,7.73
2019-05-12T18:07:13.308Z,2.53
2019-05-12T18:12:07.605Z,2.07
2019-05-12T18:17:09.103Z,7.47
2019-05-12T18:22:09.056Z,2.33
2019-05-12T18:27:07.162Z,4.10
2019-05-12T18:32:01.590Z,8.00
2019-05-12T18:36:59.848Z,4.77
2019-05-12T18:41:57.870Z,16.33
2019-05-12T18:46:54.951Z,13.97
2019-05-12T18:51:55.079Z,9.90
2019-05-12T18:56:52.429Z,3.50
2019-05-12T19:01:49.854Z,8.70
2019-05-12T19:06:47.209Z,10.13
2019-05-12T19:11:46.592Z,11.13
2019-05-12T19:16:43.646Z,13.37
2019-05-12T19:21:43.744Z,13.63
2019-05-12T19:26:40.486Z,9.47
2019-05-12T19:31:45.218Z,8.63
2019-05-12T19:36:44.912Z,9.23
2019-05-12T19:41:36.468Z,12.97
2019-05-12T19:46:39.849Z,10.43
2019-05-12T19:51:34.710Z,11.60
2019-05-12T19:56:35.811Z,11.67
2019-05-12T20:01:32.734Z,10.47
2019-05-12T20:06:29.820Z,10.10
2019-05-12T20:11:31.367Z,12.07
2019-05-12T20:16:30.484Z,12.23
2019-05-12T20:21:28.462Z,12.50
2019-05-12T20:26:25.723Z,14.60
2019-05-12T20:31:27.208Z,24.53
2019-05-12T20:36:26.051Z,18.27
2019-05-12T20:41:26.570Z,13.90
2019-05-12T20:46:25.819Z,18.67
2019-05-12T20:51:21.656Z,15.80
2019-05-12T20:56:21.935Z,16.90
2019-05-12T21:01:20.103Z,19.17
2019-05-12T21:06:18.311Z,17.27
2019-05-12T21:11:17.324Z,15.47
2019-05-12T21:16:17.580Z,16.93
2019-05-12T21:21:14.320Z,18.13
2019-05-12T21:26:13.442Z,21.87
2019-05-12T21:31:10.545Z,16.77
2019-05-12T21:36:07.568Z,14.57
2019-05-12T21:41:07.862Z,14.93
2019-05-12T21:46:10.103Z,18.03
2019-05-12T21:51:04.354Z,15.63
2019-05-12T21:56:04.299Z,18.57
2019-05-12T22:01:05.223Z,20.67
2019-05-12T22:06:06.566Z,19.63
2019-05-12T22:11:08.942Z,22.80
2019-05-12T22:15:59.686Z,23.97
2019-05-12T22:21:01.528Z,23.90
2019-05-12T22:26:00.091Z,23.17
2019-05-12T22:30:54.977Z,26.97
2019-05-12T22:36:02.800Z,29.57
2019-05-12T22:40:56.162Z,23.00
2019-05-12T22:45:49.898Z,30.00
2019-05-12T22:50:46.928Z,30.53
2019-05-12T22:55:45.757Z,24.73
2019-05-12T23:00:44.394Z,23.03
2019-05-12T23:05:50.698Z,26.30
2019-05-12T23:10:51.517Z,26.33
2019-05-12T23:15:45.217Z,27.90
2019-05-12T23:20:43.846Z,25.23
2019-05-12T23:25:41.063Z,27.43
2019-05-12T23:30:38.149Z,26.87
2019-05-12T23:35:39.353Z,22.97
2019-05-12T23:40:34.649Z,20.10
2019-05-12T23:45:33.978Z,20.47
2019-05-12T23:50:30.688Z,23.00
2019-05-12T23:55:27.720Z,14.47
